Mobridge, South Dakota
Current Conditions -  °F | °C
As of 9:52 AM on Thursday 30 Oct 2014 (Local Time) from KMBG Reporting Station
Overcast Overcast  
Wind Chill: 29°   Ceiling: 1100
Heat Index: 38°   Visibility: 10mi
Dew Point: 33°   Wind: 15mph
Humidity: 83%   Direction: 360°N
Pressure: 30.22"   Gusts: 25mph
Location:  45.54°N, 100.43°W
Report Text: KMBG 301452Z AUTO 36013G22KT 10SM OVC011 03/01 A3022 RMK AO2 PK WND 02026/1408 SLP245 T00330006 53038
Loading
Personal Weather Stations






























Interactive Weather Map
Tropical Storm Tracking
New forecast layout! Learn more

10-Day Weather Forecast

Advertisements
Track Severe Weather on mobile